sensor_id;sensor_type;location;lat;lon;timestamp;pressure;altitude;pressure_sealevel;temperature;humidity
25869;BME280;13688;53.154;18.136;2023-07-09T00:01:21;101473.27;;;14.03;100.00
25869;BME280;13688;53.154;18.136;2023-07-09T00:06:44;101479.55;;;13.82;100.00
25869;BME280;13688;53.154;18.136;2023-07-09T00:12:10;101477.69;;;13.71;100.00
25869;BME280;13688;53.154;18.136;2023-07-09T00:17:36;101480.86;;;13.65;100.00
25869;BME280;13688;53.154;18.136;2023-07-09T00:22:59;101474.20;;;13.46;100.00
25869;BME280;13688;53.154;18.136;2023-07-09T00:28:24;101474.44;;;13.43;100.00
25869;BME280;13688;53.154;18.136;2023-07-09T00:33:48;101482.16;;;13.37;100.00
25869;BME280;13688;53.154;18.136;2023-07-09T00:39:14;101473.06;;;13.38;100.00
25869;BME280;13688;53.154;18.136;2023-07-09T00:44:37;101474.46;;;13.55;100.00
25869;BME280;13688;53.154;18.136;2023-07-09T00:55:57;101469.81;;;13.79;100.00
25869;BME280;13688;53.154;18.136;2023-07-09T01:01:23;101469.08;;;13.77;100.00
25869;BME280;13688;53.154;18.136;2023-07-09T01:06:54;101477.31;;;13.75;100.00
25869;BME280;13688;53.154;18.136;2023-07-09T01:12:18;101470.06;;;13.76;100.00
25869;BME280;13688;53.154;18.136;2023-07-09T01:17:41;101470.66;;;13.68;100.00
25869;BME280;13688;53.154;18.136;2023-07-09T01:23:04;101474.13;;;13.70;100.00
25869;BME280;13688;53.154;18.136;2023-07-09T01:28:27;101477.43;;;13.63;100.00
25869;BME280;13688;53.154;18.136;2023-07-09T01:34:02;101474.99;;;13.71;100.00
25869;BME280;13688;53.154;18.136;2023-07-09T01:39:26;101476.57;;;13.62;100.00
25869;BME280;13688;53.154;18.136;2023-07-09T01:44:51;101479.13;;;13.53;100.00
25869;BME280;13688;53.154;18.136;2023-07-09T01:50:14;101475.33;;;13.66;100.00
25869;BME280;13688;53.154;18.136;2023-07-09T01:55:37;101470.92;;;13.77;100.00
25869;BME280;13688;53.154;18.136;2023-07-09T02:01:00;101483.70;;;13.74;100.00
25869;BME280;13688;53.154;18.136;2023-07-09T02:06:25;101493.39;;;13.66;100.00
25869;BME280;13688;53.154;18.136;2023-07-09T02:11:47;101493.64;;;13.63;100.00
25869;BME280;13688;53.154;18.136;2023-07-09T02:17:10;101504.64;;;13.49;100.00
25869;BME280;13688;53.154;18.136;2023-07-09T02:22:35;101508.92;;;13.40;100.00
25869;BME280;13688;53.154;18.136;2023-07-09T02:27:58;101508.92;;;13.40;100.00
25869;BME280;13688;53.154;18.136;2023-07-09T02:33:21;101511.28;;;13.44;100.00
25869;BME280;13688;53.154;18.136;2023-07-09T02:38:45;101509.56;;;13.43;100.00
25869;BME280;13688;53.154;18.136;2023-07-09T02:44:07;101508.70;;;13.43;100.00
25869;BME280;13688;53.154;18.136;2023-07-09T02:49:30;101509.16;;;13.37;100.00
25869;BME280;13688;53.154;18.136;2023-07-09T02:54:52;101508.39;;;13.24;100.00
25869;BME280;13688;53.154;18.136;2023-07-09T03:00:15;101508.61;;;13.21;100.00
25869;BME280;13688;53.154;18.136;2023-07-09T03:05:39;101518.64;;;13.18;100.00
25869;BME280;13688;53.154;18.136;2023-07-09T03:11:09;101528.58;;;13.18;100.00
25869;BME280;13688;53.154;18.136;2023-07-09T03:16:33;101533.12;;;13.17;100.00
25869;BME280;13688;53.154;18.136;2023-07-09T03:21:56;101525.67;;;13.21;100.00
25869;BME280;13688;53.154;18.136;2023-07-09T03:27:18;101536.88;;;13.28;100.00
25869;BME280;13688;53.154;18.136;2023-07-09T03:32:43;101539.94;;;13.23;100.00
25869;BME280;13688;53.154;18.136;2023-07-09T03:38:08;101548.95;;;13.35;100.00
25869;BME280;13688;53.154;18.136;2023-07-09T03:43:31;101549.84;;;13.46;100.00
25869;BME280;13688;53.154;18.136;2023-07-09T03:48:54;101554.30;;;13.59;100.00
25869;BME280;13688;53.154;18.136;2023-07-09T03:54:17;101552.97;;;13.64;100.00
25869;BME280;13688;53.154;18.136;2023-07-09T03:59:39;101558.06;;;13.80;100.00
25869;BME280;13688;53.154;18.136;2023-07-09T04:05:02;101556.58;;;13.87;100.00
25869;BME280;13688;53.154;18.136;2023-07-09T04:10:25;101547.52;;;13.99;100.00
25869;BME280;13688;53.154;18.136;2023-07-09T04:15:47;101551.95;;;14.23;100.00
25869;BME280;13688;53.154;18.136;2023-07-09T04:21:11;101556.77;;;14.53;100.00
25869;BME280;13688;53.154;18.136;2023-07-09T04:26:34;101560.69;;;14.71;100.00
25869;BME280;13688;53.154;18.136;2023-07-09T04:31:57;101569.61;;;14.94;100.00
25869;BME280;13688;53.154;18.136;2023-07-09T04:37:21;101559.64;;;15.06;100.00
25869;BME280;13688;53.154;18.136;2023-07-09T04:42:44;101560.78;;;15.24;100.00
25869;BME280;13688;53.154;18.136;2023-07-09T04:48:07;101566.64;;;15.40;100.00
25869;BME280;13688;53.154;18.136;2023-07-09T04:53:29;101563.02;;;15.51;100.00
25869;BME280;13688;53.154;18.136;2023-07-09T04:58:52;101569.16;;;15.64;100.00
25869;BME280;13688;53.154;18.136;2023-07-09T05:04:15;101577.43;;;15.84;100.00
25869;BME280;13688;53.154;18.136;2023-07-09T05:09:38;101586.80;;;16.00;100.00
25869;BME280;13688;53.154;18.136;2023-07-09T05:15:01;101591.89;;;16.15;100.00
25869;BME280;13688;53.154;18.136;2023-07-09T05:20:23;101590.53;;;16.30;100.00
25869;BME280;13688;53.154;18.136;2023-07-09T05:25:46;101584.62;;;16.46;100.00
25869;BME280;13688;53.154;18.136;2023-07-09T05:31:15;101587.80;;;16.51;100.00
25869;BME280;13688;53.154;18.136;2023-07-09T05:36:37;101590.05;;;16.76;100.00
25869;BME280;13688;53.154;18.136;2023-07-09T05:41:59;101591.25;;;16.93;100.00
25869;BME280;13688;53.154;18.136;2023-07-09T05:47:23;101591.84;;;17.06;100.00
25869;BME280;13688;53.154;18.136;2023-07-09T05:52:47;101593.58;;;17.27;100.00
25869;BME280;13688;53.154;18.136;2023-07-09T05:58:09;101585.87;;;17.41;100.00
25869;BME280;13688;53.154;18.136;2023-07-09T06:03:32;101590.02;;;17.55;100.00
25869;BME280;13688;53.154;18.136;2023-07-09T06:08:56;101583.03;;;17.72;100.00
25869;BME280;13688;53.154;18.136;2023-07-09T06:14:18;101583.30;;;17.98;100.00
25869;BME280;13688;53.154;18.136;2023-07-09T06:19:41;101585.52;;;18.22;98.11
25869;BME280;13688;53.154;18.136;2023-07-09T06:25:06;101588.48;;;18.38;94.55
25869;BME280;13688;53.154;18.136;2023-07-09T06:30:28;101592.45;;;18.53;92.00
25869;BME280;13688;53.154;18.136;2023-07-09T06:35:54;101585.95;;;18.64;86.55
25869;BME280;13688;53.154;18.136;2023-07-09T06:41:18;101582.24;;;18.93;83.95
25869;BME280;13688;53.154;18.136;2023-07-09T06:46:42;101587.92;;;18.99;79.24
25869;BME280;13688;53.154;18.136;2023-07-09T06:52:05;101593.81;;;19.22;78.50
25869;BME280;13688;53.154;18.136;2023-07-09T06:57:28;101590.77;;;19.25;79.86
25869;BME280;13688;53.154;18.136;2023-07-09T07:02:50;101589.92;;;19.42;79.41
25869;BME280;13688;53.154;18.136;2023-07-09T07:08:14;101598.27;;;19.59;79.39
25869;BME280;13688;53.154;18.136;2023-07-09T07:13:40;101590.94;;;19.77;76.39
25869;BME280;13688;53.154;18.136;2023-07-09T07:19:04;101592.09;;;19.92;71.24
25869;BME280;13688;53.154;18.136;2023-07-09T07:24:26;101596.16;;;20.14;74.80
25869;BME280;13688;53.154;18.136;2023-07-09T07:29:49;101601.33;;;20.17;73.30
25869;BME280;13688;53.154;18.136;2023-07-09T07:35:12;101595.76;;;20.27;73.73
25869;BME280;13688;53.154;18.136;2023-07-09T07:40:34;101589.80;;;20.32;72.74
25869;BME280;13688;53.154;18.136;2023-07-09T07:45:58;101590.67;;;20.58;68.38
25869;BME280;13688;53.154;18.136;2023-07-09T07:51:22;101589.08;;;20.47;69.17
25869;BME280;13688;53.154;18.136;2023-07-09T07:56:45;101582.52;;;20.74;71.52
25869;BME280;13688;53.154;18.136;2023-07-09T08:02:13;101585.23;;;21.17;65.84
25869;BME280;13688;53.154;18.136;2023-07-09T08:07:33;101589.52;;;21.19;66.31
25869;BME280;13688;53.154;18.136;2023-07-09T08:12:55;101585.84;;;21.45;66.56
25869;BME280;13688;53.154;18.136;2023-07-09T08:18:17;101577.12;;;21.57;63.31
25869;BME280;13688;53.154;18.136;2023-07-09T08:23:40;101577.13;;;21.65;57.60
25869;BME280;13688;53.154;18.136;2023-07-09T08:29:03;101579.52;;;21.77;55.75
25869;BME280;13688;53.154;18.136;2023-07-09T08:34:26;101582.42;;;22.16;53.44
25869;BME280;13688;53.154;18.136;2023-07-09T08:39:50;101571.95;;;22.19;47.54
25869;BME280;13688;53.154;18.136;2023-07-09T08:50:58;101568.94;;;22.62;42.24
25869;BME280;13688;53.154;18.136;2023-07-09T08:56:23;101565.84;;;23.04;42.29
25869;BME280;13688;53.154;18.136;2023-07-09T09:01:53;101566.35;;;23.07;40.35
25869;BME280;13688;53.154;18.136;2023-07-09T09:13:08;101564.05;;;23.42;40.60
25869;BME280;13688;53.154;18.136;2023-07-09T09:18:36;101563.86;;;23.43;41.43
25869;BME280;13688;53.154;18.136;2023-07-09T09:24:16;101564.95;;;23.34;42.09
25869;BME280;13688;53.154;18.136;2023-07-09T09:29:50;101551.59;;;23.54;41.78
25869;BME280;13688;53.154;18.136;2023-07-09T09:35:24;101544.98;;;24.39;40.43
25869;BME280;13688;53.154;18.136;2023-07-09T09:40:46;101543.75;;;24.71;36.95
25869;BME280;13688;53.154;18.136;2023-07-09T09:46:20;101539.53;;;25.26;36.46
25869;BME280;13688;53.154;18.136;2023-07-09T09:51:41;101543.21;;;25.33;36.06
25869;BME280;13688;53.154;18.136;2023-07-09T09:57:24;101541.70;;;25.52;35.56
25869;BME280;13688;53.154;18.136;2023-07-09T10:02:47;101546.09;;;25.67;35.91
25869;BME280;13688;53.154;18.136;2023-07-09T10:14:14;101544.93;;;27.28;32.65
25869;BME280;13688;53.154;18.136;2023-07-09T10:19:45;101544.03;;;27.08;31.93
25869;BME280;13688;53.154;18.136;2023-07-09T10:42:54;101557.35;;;27.92;30.16
25869;BME280;13688;53.154;18.136;2023-07-09T10:48:10;101561.17;;;27.84;29.10
25869;BME280;13688;53.154;18.136;2023-07-09T10:53:50;101548.84;;;27.67;25.92
25869;BME280;13688;53.154;18.136;2023-07-09T10:59:37;101544.75;;;28.36;27.70
25869;BME280;13688;53.154;18.136;2023-07-09T11:05:05;101539.62;;;28.46;27.43
25869;BME280;13688;53.154;18.136;2023-07-09T11:10:38;101535.05;;;28.78;26.29
25869;BME280;13688;53.154;18.136;2023-07-09T11:16:05;101539.27;;;28.29;26.00
25869;BME280;13688;53.154;18.136;2023-07-09T11:21:40;101530.22;;;28.60;24.52
25869;BME280;13688;53.154;18.136;2023-07-09T11:27:01;101537.12;;;29.34;24.20
25869;BME280;13688;53.154;18.136;2023-07-09T11:32:27;101538.01;;;29.59;25.74
25869;BME280;13688;53.154;18.136;2023-07-09T11:37:53;101521.39;;;29.84;25.89
25869;BME280;13688;53.154;18.136;2023-07-09T11:43:29;101523.88;;;29.68;25.94
25869;BME280;13688;53.154;18.136;2023-07-09T11:48:54;101530.34;;;30.11;25.65
25869;BME280;13688;53.154;18.136;2023-07-09T11:54:18;101524.59;;;29.81;26.48
25869;BME280;13688;53.154;18.136;2023-07-09T11:59:48;101517.55;;;30.84;25.45
25869;BME280;13688;53.154;18.136;2023-07-09T12:05:18;101515.22;;;30.99;25.80
25869;BME280;13688;53.154;18.136;2023-07-09T12:10:47;101509.20;;;30.10;26.37
25869;BME280;13688;53.154;18.136;2023-07-09T12:16:28;101496.67;;;29.58;28.26
25869;BME280;13688;53.154;18.136;2023-07-09T12:21:57;101499.86;;;30.05;26.97
25869;BME280;13688;53.154;18.136;2023-07-09T12:27:24;101492.27;;;30.37;26.64
25869;BME280;13688;53.154;18.136;2023-07-09T12:32:54;101476.70;;;31.02;25.89
25869;BME280;13688;53.154;18.136;2023-07-09T12:38:19;101479.68;;;30.89;26.20
25869;BME280;13688;53.154;18.136;2023-07-09T12:43:45;101469.75;;;29.33;27.45
25869;BME280;13688;53.154;18.136;2023-07-09T12:49:17;101463.14;;;30.64;25.76
25869;BME280;13688;53.154;18.136;2023-07-09T12:54:38;101464.59;;;30.97;25.95
25869;BME280;13688;53.154;18.136;2023-07-09T13:00:05;101468.21;;;30.97;25.87
25869;BME280;13688;53.154;18.136;2023-07-09T13:05:30;101454.86;;;31.59;24.89
25869;BME280;13688;53.154;18.136;2023-07-09T13:10:52;101453.54;;;31.09;24.91
25869;BME280;13688;53.154;18.136;2023-07-09T13:16:18;101451.33;;;30.99;25.06
25869;BME280;13688;53.154;18.136;2023-07-09T13:21:44;101442.98;;;31.29;24.89
25869;BME280;13688;53.154;18.136;2023-07-09T13:27:14;101439.52;;;31.92;25.15
25869;BME280;13688;53.154;18.136;2023-07-09T13:32:37;101430.39;;;31.26;24.43
25869;BME280;13688;53.154;18.136;2023-07-09T13:38:01;101426.94;;;31.01;24.09
25869;BME280;13688;53.154;18.136;2023-07-09T13:43:39;101428.63;;;31.67;24.12
25869;BME280;13688;53.154;18.136;2023-07-09T13:49:07;101421.48;;;31.71;24.68
25869;BME280;13688;53.154;18.136;2023-07-09T13:54:31;101417.20;;;30.50;25.56
25869;BME280;13688;53.154;18.136;2023-07-09T13:59:56;101419.23;;;31.15;25.02
25869;BME280;13688;53.154;18.136;2023-07-09T14:05:19;101420.52;;;31.54;24.94
25869;BME280;13688;53.154;18.136;2023-07-09T14:10:42;101405.77;;;31.42;24.78
25869;BME280;13688;53.154;18.136;2023-07-09T14:16:05;101413.64;;;31.68;25.34
25869;BME280;13688;53.154;18.136;2023-07-09T14:21:31;101412.36;;;32.23;24.80
25869;BME280;13688;53.154;18.136;2023-07-09T14:26:56;101416.19;;;31.46;25.45
25869;BME280;13688;53.154;18.136;2023-07-09T14:32:34;101413.79;;;31.85;24.39
25869;BME280;13688;53.154;18.136;2023-07-09T14:37:58;101405.27;;;32.55;24.22
25869;BME280;13688;53.154;18.136;2023-07-09T14:43:23;101405.80;;;32.97;23.55
25869;BME280;13688;53.154;18.136;2023-07-09T14:48:45;101396.94;;;32.84;23.70
25869;BME280;13688;53.154;18.136;2023-07-09T14:54:30;101398.88;;;33.00;23.61
25869;BME280;13688;53.154;18.136;2023-07-09T14:59:39;101384.29;;;32.64;23.80
25869;BME280;13688;53.154;18.136;2023-07-09T15:05:02;101377.88;;;32.64;23.12
25869;BME280;13688;53.154;18.136;2023-07-09T15:10:31;101379.48;;;33.05;23.27
25869;BME280;13688;53.154;18.136;2023-07-09T15:15:53;101373.06;;;33.38;22.90
25869;BME280;13688;53.154;18.136;2023-07-09T15:21:17;101370.02;;;33.06;22.19
25869;BME280;13688;53.154;18.136;2023-07-09T15:26:41;101373.48;;;33.47;21.88
25869;BME280;13688;53.154;18.136;2023-07-09T15:32:05;101373.80;;;32.55;23.26
25869;BME280;13688;53.154;18.136;2023-07-09T15:37:27;101359.64;;;33.01;23.16
25869;BME280;13688;53.154;18.136;2023-07-09T15:42:53;101355.23;;;32.89;22.69
25869;BME280;13688;53.154;18.136;2023-07-09T15:48:33;101348.33;;;32.91;23.02
25869;BME280;13688;53.154;18.136;2023-07-09T15:53:56;101356.86;;;33.01;22.68
25869;BME280;13688;53.154;18.136;2023-07-09T16:04:52;101344.68;;;33.08;22.02
25869;BME280;13688;53.154;18.136;2023-07-09T16:10:14;101334.52;;;33.35;22.94
25869;BME280;13688;53.154;18.136;2023-07-09T16:15:39;101341.16;;;33.68;22.69
25869;BME280;13688;53.154;18.136;2023-07-09T16:21:01;101339.29;;;33.73;22.05
25869;BME280;13688;53.154;18.136;2023-07-09T16:26:32;101334.28;;;33.20;22.37
25869;BME280;13688;53.154;18.136;2023-07-09T16:31:55;101338.11;;;34.08;21.04
25869;BME280;13688;53.154;18.136;2023-07-09T16:37:20;101333.09;;;32.82;22.82
25869;BME280;13688;53.154;18.136;2023-07-09T16:42:43;101329.31;;;32.88;22.77
25869;BME280;13688;53.154;18.136;2023-07-09T16:48:14;101327.54;;;33.16;22.27
25869;BME280;13688;53.154;18.136;2023-07-09T16:53:37;101325.13;;;33.58;21.52
25869;BME280;13688;53.154;18.136;2023-07-09T16:58:59;101327.35;;;32.15;24.02
25869;BME280;13688;53.154;18.136;2023-07-09T17:04:25;101326.69;;;32.36;23.51
25869;BME280;13688;53.154;18.136;2023-07-09T17:09:48;101324.77;;;32.25;24.01
25869;BME280;13688;53.154;18.136;2023-07-09T17:15:33;101325.22;;;31.94;24.68
25869;BME280;13688;53.154;18.136;2023-07-09T17:20:43;101321.13;;;31.73;24.79
25869;BME280;13688;53.154;18.136;2023-07-09T17:26:07;101314.66;;;31.32;25.40
25869;BME280;13688;53.154;18.136;2023-07-09T17:31:30;101316.69;;;31.13;25.03
25869;BME280;13688;53.154;18.136;2023-07-09T17:36:53;101318.72;;;30.94;25.43
25869;BME280;13688;53.154;18.136;2023-07-09T17:42:20;101304.68;;;30.77;25.46
25869;BME280;13688;53.154;18.136;2023-07-09T17:47:43;101310.04;;;31.02;25.68
25869;BME280;13688;53.154;18.136;2023-07-09T17:53:08;101307.41;;;30.24;25.92
25869;BME280;13688;53.154;18.136;2023-07-09T17:58:34;101313.64;;;30.19;26.55
25869;BME280;13688;53.154;18.136;2023-07-09T18:03:58;101310.42;;;30.04;26.73
25869;BME280;13688;53.154;18.136;2023-07-09T18:09:27;101309.84;;;29.84;27.41
25869;BME280;13688;53.154;18.136;2023-07-09T18:14:52;101305.45;;;29.58;27.76
25869;BME280;13688;53.154;18.136;2023-07-09T18:20:21;101302.17;;;29.24;28.49
25869;BME280;13688;53.154;18.136;2023-07-09T18:25:45;101295.98;;;28.72;30.31
25869;BME280;13688;53.154;18.136;2023-07-09T18:31:09;101296.47;;;27.86;31.41
25869;BME280;13688;53.154;18.136;2023-07-09T18:36:32;101289.84;;;26.96;33.66
25869;BME280;13688;53.154;18.136;2023-07-09T18:41:54;101292.70;;;26.15;34.98
25869;BME280;13688;53.154;18.136;2023-07-09T18:47:21;101296.72;;;25.30;37.55
25869;BME280;13688;53.154;18.136;2023-07-09T18:52:43;101305.19;;;24.58;38.73
25869;BME280;13688;53.154;18.136;2023-07-09T18:58:14;101303.55;;;24.06;39.74
25869;BME280;13688;53.154;18.136;2023-07-09T19:03:40;101310.50;;;23.58;41.12
25869;BME280;13688;53.154;18.136;2023-07-09T19:09:07;101305.02;;;23.28;42.13
25869;BME280;13688;53.154;18.136;2023-07-09T19:14:36;101306.68;;;23.00;42.81
25869;BME280;13688;53.154;18.136;2023-07-09T19:19:59;101318.64;;;22.61;44.36
25869;BME280;13688;53.154;18.136;2023-07-09T19:25:28;101324.22;;;22.22;46.73
25869;BME280;13688;53.154;18.136;2023-07-09T19:30:53;101328.45;;;21.93;47.75
25869;BME280;13688;53.154;18.136;2023-07-09T19:36:22;101330.10;;;21.71;48.27
25869;BME280;13688;53.154;18.136;2023-07-09T19:41:45;101330.91;;;21.33;49.80
25869;BME280;13688;53.154;18.136;2023-07-09T19:47:24;101328.17;;;21.00;51.64
25869;BME280;13688;53.154;18.136;2023-07-09T19:52:50;101339.64;;;20.79;54.59
25869;BME280;13688;53.154;18.136;2023-07-09T19:58:14;101336.20;;;20.53;56.26
25869;BME280;13688;53.154;18.136;2023-07-09T20:03:38;101339.55;;;20.30;57.54
25869;BME280;13688;53.154;18.136;2023-07-09T20:09:01;101349.77;;;20.20;58.80
25869;BME280;13688;53.154;18.136;2023-07-09T20:14:27;101348.45;;;20.41;57.65
25869;BME280;13688;53.154;18.136;2023-07-09T20:19:50;101354.48;;;20.61;56.95
25869;BME280;13688;53.154;18.136;2023-07-09T20:25:18;101349.70;;;20.71;56.05
25869;BME280;13688;53.154;18.136;2023-07-09T20:30:42;101360.62;;;20.63;56.65
25869;BME280;13688;53.154;18.136;2023-07-09T20:36:05;101357.38;;;20.51;57.55
25869;BME280;13688;53.154;18.136;2023-07-09T20:41:28;101355.77;;;20.32;58.62
25869;BME280;13688;53.154;18.136;2023-07-09T20:46:53;101367.69;;;20.23;59.70
25869;BME280;13688;53.154;18.136;2023-07-09T20:52:16;101360.72;;;20.28;59.91
25869;BME280;13688;53.154;18.136;2023-07-09T20:57:42;101376.22;;;20.20;60.24
25869;BME280;13688;53.154;18.136;2023-07-09T21:03:12;101374.66;;;20.09;61.15
25869;BME280;13688;53.154;18.136;2023-07-09T21:08:43;101380.04;;;19.93;62.10
25869;BME280;13688;53.154;18.136;2023-07-09T21:14:10;101389.00;;;19.77;63.04
25869;BME280;13688;53.154;18.136;2023-07-09T21:19:35;101392.91;;;19.75;63.18
25869;BME280;13688;53.154;18.136;2023-07-09T21:25:00;101398.88;;;19.70;63.92
25869;BME280;13688;53.154;18.136;2023-07-09T21:30:27;101402.48;;;19.53;65.42
25869;BME280;13688;53.154;18.136;2023-07-09T21:35:51;101392.64;;;19.34;67.26
25869;BME280;13688;53.154;18.136;2023-07-09T21:41:14;101408.67;;;19.11;69.47
25869;BME280;13688;53.154;18.136;2023-07-09T21:46:38;101419.09;;;18.98;70.44
25869;BME280;13688;53.154;18.136;2023-07-09T21:52:03;101399.78;;;18.91;71.68
25869;BME280;13688;53.154;18.136;2023-07-09T21:57:34;101393.11;;;18.85;73.08
25869;BME280;13688;53.154;18.136;2023-07-09T22:02:57;101395.75;;;18.77;73.85
25869;BME280;13688;53.154;18.136;2023-07-09T22:08:21;101406.32;;;18.63;75.26
25869;BME280;13688;53.154;18.136;2023-07-09T22:13:44;101404.36;;;18.55;75.94
25869;BME280;13688;53.154;18.136;2023-07-09T22:19:08;101406.59;;;18.42;77.79
25869;BME280;13688;53.154;18.136;2023-07-09T22:24:34;101411.17;;;18.41;79.71
25869;BME280;13688;53.154;18.136;2023-07-09T22:29:57;101394.62;;;18.35;80.47
25869;BME280;13688;53.154;18.136;2023-07-09T22:35:26;101404.89;;;18.13;82.78
25869;BME280;13688;53.154;18.136;2023-07-09T22:40:47;101412.67;;;18.08;83.72
25869;BME280;13688;53.154;18.136;2023-07-09T22:46:14;101409.95;;;18.08;84.27
25869;BME280;13688;53.154;18.136;2023-07-09T22:51:35;101410.65;;;18.10;83.87
25869;BME280;13688;53.154;18.136;2023-07-09T22:56:59;101403.66;;;18.08;83.82
25869;BME280;13688;53.154;18.136;2023-07-09T23:02:22;101397.95;;;18.01;85.28
25869;BME280;13688;53.154;18.136;2023-07-09T23:07:45;101392.33;;;17.75;87.79
25869;BME280;13688;53.154;18.136;2023-07-09T23:13:08;101385.33;;;17.72;88.77
25869;BME280;13688;53.154;18.136;2023-07-09T23:18:31;101376.02;;;17.65;90.61
25869;BME280;13688;53.154;18.136;2023-07-09T23:23:56;101379.20;;;17.61;91.10
25869;BME280;13688;53.154;18.136;2023-07-09T23:29:19;101388.20;;;17.61;90.54
25869;BME280;13688;53.154;18.136;2023-07-09T23:34:42;101387.66;;;17.58;90.46
25869;BME280;13688;53.154;18.136;2023-07-09T23:40:06;101388.97;;;17.44;91.51
25869;BME280;13688;53.154;18.136;2023-07-09T23:45:29;101379.59;;;17.29;93.03
25869;BME280;13688;53.154;18.136;2023-07-09T23:50:55;101374.17;;;17.19;94.40
25869;BME280;13688;53.154;18.136;2023-07-09T23:56:27;101371.04;;;17.04;96.61
